createdAt,value
2023-03-31T00:46:22.486Z,1.50
2023-03-31T00:49:12.570Z,1.40
2023-03-31T00:52:03.262Z,1.23
2023-03-31T00:54:51.771Z,1.20
2023-03-31T00:57:39.518Z,1.48
2023-03-31T01:47:58.905Z,1.33
2023-03-31T01:50:51.556Z,1.08
2023-03-31T01:53:48.700Z,1.20
2023-03-31T01:56:40.865Z,1.15
2023-03-31T01:59:28.341Z,1.27
2023-03-31T02:46:33.883Z,1.10
2023-03-31T02:49:21.333Z,0.82
2023-03-31T02:52:15.898Z,1.20
2023-03-31T02:55:13.845Z,1.10
2023-03-31T02:58:18.221Z,0.80
2023-03-31T03:48:41.972Z,1.38
2023-03-31T03:51:27.396Z,0.80
2023-03-31T03:54:13.313Z,1.00
2023-03-31T03:56:59.207Z,1.10
2023-03-31T03:59:44.274Z,0.98
2023-03-31T04:46:41.911Z,1.20
2023-03-31T04:49:27.531Z,0.90
2023-03-31T04:52:12.564Z,0.90
2023-03-31T04:54:58.024Z,0.98
2023-03-31T04:57:42.802Z,0.70
2023-03-31T05:00:28.936Z,0.98
2023-03-31T05:03:14.437Z,0.90
2023-03-31T05:06:02.037Z,0.95
2023-03-31T05:08:47.096Z,0.90
2023-03-31T05:11:32.424Z,0.83
2023-03-31T05:14:17.262Z,0.90
2023-03-31T05:17:02.932Z,0.90
2023-03-31T05:19:47.855Z,0.82
2023-03-31T05:22:34.466Z,0.80
2023-03-31T05:25:19.425Z,0.87
2023-03-31T05:28:04.787Z,0.82
2023-03-31T05:30:50.034Z,0.70
2023-03-31T05:33:40.209Z,1.00
2023-03-31T05:36:27.167Z,0.80
2023-03-31T05:39:12.897Z,0.87
2023-03-31T05:41:58.527Z,1.00
2023-03-31T05:44:43.900Z,0.77
2023-03-31T05:47:29.031Z,1.02
2023-03-31T05:50:14.972Z,0.82
2023-03-31T05:53:00.428Z,1.00
2023-03-31T05:55:45.795Z,0.90
2023-03-31T05:58:31.278Z,1.05
2023-03-31T06:01:19.788Z,0.88
2023-03-31T06:04:04.966Z,0.80
2023-03-31T06:06:50.575Z,0.80
2023-03-31T06:09:36.281Z,0.90
2023-03-31T06:12:21.580Z,0.80
2023-03-31T06:15:07.304Z,0.95
2023-03-31T06:17:52.610Z,0.95
2023-03-31T06:20:37.995Z,0.90
2023-03-31T06:23:23.278Z,0.95
2023-03-31T06:26:08.738Z,0.90
2023-03-31T06:28:54.128Z,0.80
2023-03-31T06:31:39.128Z,0.90
2023-03-31T06:34:24.628Z,0.80
2023-03-31T06:37:09.421Z,0.90
2023-03-31T06:39:54.426Z,0.80
2023-03-31T06:42:39.288Z,0.80
2023-03-31T06:45:24.726Z,0.80
2023-03-31T06:48:10.345Z,1.00
2023-03-31T06:50:55.982Z,0.73
2023-03-31T06:53:41.327Z,0.80
2023-03-31T06:56:27.395Z,0.70
2023-03-31T06:59:12.957Z,0.68
2023-03-31T07:01:58.539Z,1.00
2023-03-31T07:04:43.770Z,0.70
2023-03-31T07:07:31.193Z,0.90
2023-03-31T07:10:16.134Z,1.10
2023-03-31T07:13:02.313Z,0.85
2023-03-31T07:15:49.270Z,1.00
2023-03-31T07:18:35.571Z,0.80
2023-03-31T07:21:21.537Z,0.90
2023-03-31T07:24:07.055Z,0.65
2023-03-31T07:26:51.907Z,0.77
2023-03-31T07:29:36.866Z,0.87
2023-03-31T07:32:23.667Z,0.85
2023-03-31T07:35:10.694Z,0.90
2023-03-31T07:37:56.512Z,0.80
2023-03-31T07:40:43.597Z,1.00
2023-03-31T07:43:29.154Z,0.80
2023-03-31T07:46:16.049Z,0.88
2023-03-31T07:49:03.200Z,0.85
2023-03-31T07:51:48.697Z,0.90
2023-03-31T07:54:34.053Z,1.20
2023-03-31T07:57:19.640Z,1.00
2023-03-31T08:00:08.327Z,1.13
2023-03-31T08:02:59.623Z,1.13
2023-03-31T08:05:49.394Z,0.80
2023-03-31T08:08:38.397Z,1.10
2023-03-31T08:11:24.640Z,1.40
2023-03-31T08:14:10.357Z,1.00
2023-03-31T08:16:58.046Z,1.00
2023-03-31T08:19:43.854Z,0.88
2023-03-31T08:22:29.279Z,0.90
2023-03-31T08:25:14.844Z,0.70
2023-03-31T08:28:00.384Z,0.90
2023-03-31T08:30:46.283Z,1.17
2023-03-31T08:33:31.578Z,0.90
2023-03-31T08:36:16.814Z,1.00
2023-03-31T08:39:02.033Z,1.20
2023-03-31T08:42:10.399Z,1.00
2023-03-31T08:45:14.336Z,1.10
2023-03-31T08:48:01.950Z,0.95
2023-03-31T08:50:50.340Z,1.40
2023-03-31T08:53:38.929Z,9.10
2023-03-31T08:56:25.971Z,10.10
2023-03-31T08:59:39.025Z,9.02
2023-03-31T09:02:56.715Z,7.05
2023-03-31T09:05:57.314Z,6.55
2023-03-31T09:08:45.474Z,5.93
2023-03-31T09:11:30.296Z,5.25
2023-03-31T09:14:34.603Z,5.63
2023-03-31T09:17:41.217Z,5.22
2023-03-31T09:20:38.084Z,5.28
2023-03-31T09:23:27.123Z,4.77
2023-03-31T09:26:23.907Z,4.40
2023-03-31T09:29:32.452Z,4.57
2023-03-31T09:32:17.750Z,3.97
2023-03-31T09:35:14.245Z,4.28
2023-03-31T09:37:59.948Z,3.93
2023-03-31T09:40:45.204Z,4.03
2023-03-31T09:43:31.577Z,4.10
2023-03-31T09:46:26.243Z,4.03
2023-03-31T09:49:13.950Z,3.90
2023-03-31T09:52:20.515Z,3.67
2023-03-31T09:55:14.345Z,3.67
2023-03-31T09:58:00.639Z,4.32
2023-03-31T10:01:00.731Z,3.95
2023-03-31T10:03:54.160Z,3.30
2023-03-31T10:06:41.992Z,3.73
2023-03-31T10:09:30.275Z,3.58
2023-03-31T10:12:16.707Z,4.07
2023-03-31T10:15:31.730Z,3.65
2023-03-31T10:18:19.040Z,3.72
2023-03-31T10:21:06.720Z,3.30
2023-03-31T10:23:52.903Z,3.35
2023-03-31T10:26:38.329Z,3.00
2023-03-31T10:29:31.364Z,2.92
2023-03-31T10:32:28.962Z,3.10
2023-03-31T10:35:30.289Z,3.80
2023-03-31T10:38:19.804Z,2.88
2023-03-31T10:41:05.205Z,2.88
2023-03-31T10:43:55.263Z,3.67
2023-03-31T10:46:42.334Z,3.17
2023-03-31T10:49:27.775Z,3.40
2023-03-31T10:52:15.973Z,3.65
2023-03-31T10:55:01.995Z,3.25
2023-03-31T10:57:58.049Z,3.25
2023-03-31T11:00:52.274Z,3.03
2023-03-31T11:03:47.547Z,2.80
2023-03-31T11:06:51.945Z,3.05
2023-03-31T11:10:03.486Z,2.65
2023-03-31T11:12:55.443Z,2.50
2023-03-31T11:15:44.873Z,2.78
2023-03-31T11:18:36.209Z,3.20
2023-03-31T11:21:28.165Z,2.88
2023-03-31T11:24:22.668Z,2.60
2023-03-31T11:27:24.128Z,2.83
2023-03-31T11:30:20.457Z,3.03
2023-03-31T11:33:08.738Z,2.80
2023-03-31T11:35:57.513Z,2.75
2023-03-31T11:38:51.005Z,2.35
2023-03-31T11:41:42.532Z,2.90
2023-03-31T11:44:33.033Z,2.70
2023-03-31T11:47:25.853Z,3.40
2023-03-31T11:50:23.113Z,4.40
2023-03-31T11:53:18.496Z,5.00
2023-03-31T11:56:08.680Z,5.53
2023-03-31T11:58:57.551Z,5.22
2023-03-31T12:01:54.278Z,5.37
2023-03-31T12:04:44.078Z,5.45
2023-03-31T12:07:37.183Z,5.90
2023-03-31T12:10:23.066Z,5.40
2023-03-31T12:13:32.069Z,4.38
2023-03-31T12:16:20.115Z,4.80
2023-03-31T12:19:17.429Z,5.30
2023-03-31T12:22:21.669Z,4.72
2023-03-31T12:25:12.172Z,4.60
2023-03-31T12:27:58.816Z,4.88
2023-03-31T12:30:44.314Z,4.40
2023-03-31T12:33:35.934Z,4.78
2023-03-31T12:36:40.044Z,4.50
2023-03-31T12:39:32.722Z,4.85
2023-03-31T12:42:21.844Z,5.38
2023-03-31T12:45:14.204Z,4.83
2023-03-31T12:48:13.978Z,5.15
2023-03-31T12:51:22.008Z,3.90
2023-03-31T12:54:14.069Z,4.20
2023-03-31T12:57:03.053Z,4.18
2023-03-31T13:00:12.598Z,4.33
2023-03-31T13:03:28.608Z,4.18
2023-03-31T13:06:26.347Z,3.65
2023-03-31T13:09:18.664Z,4.15
2023-03-31T13:12:07.288Z,3.90
2023-03-31T13:14:54.500Z,3.63
2023-03-31T13:17:41.338Z,3.63
2023-03-31T13:20:32.073Z,4.00
2023-03-31T13:23:19.766Z,3.97
2023-03-31T13:26:05.927Z,3.70
2023-03-31T13:29:09.556Z,4.10
2023-03-31T13:32:01.202Z,3.85
2023-03-31T13:34:52.968Z,3.60
2023-03-31T13:37:37.929Z,3.85
2023-03-31T13:40:28.913Z,3.70
2023-03-31T13:43:29.494Z,3.13
2023-03-31T13:46:45.130Z,3.90
2023-03-31T13:49:39.088Z,3.00
2023-03-31T13:52:32.869Z,3.25
2023-03-31T13:55:37.541Z,3.35
2023-03-31T13:58:39.469Z,3.77
2023-03-31T14:01:30.550Z,2.88
2023-03-31T14:04:22.682Z,3.33
2023-03-31T14:07:24.571Z,2.95
2023-03-31T14:10:24.397Z,3.22
2023-03-31T14:13:19.794Z,3.30
2023-03-31T14:16:06.359Z,3.42
2023-03-31T14:18:57.714Z,3.05
2023-03-31T14:21:54.563Z,3.28
2023-03-31T14:25:02.292Z,2.95
2023-03-31T14:28:08.895Z,3.17
2023-03-31T14:31:14.061Z,3.17
2023-03-31T14:34:09.098Z,3.13
2023-03-31T14:37:11.634Z,2.70
2023-03-31T14:39:59.422Z,2.67
2023-03-31T14:42:50.639Z,2.47
2023-03-31T14:45:36.812Z,2.50
2023-03-31T14:48:24.309Z,2.80
2023-03-31T14:51:11.013Z,2.80
2023-03-31T14:53:59.139Z,2.40
2023-03-31T14:56:51.025Z,2.57
2023-03-31T14:59:37.453Z,2.95
2023-03-31T15:02:34.168Z,2.92
2023-03-31T15:05:25.836Z,2.90
2023-03-31T15:08:18.360Z,2.63
2023-03-31T15:11:12.886Z,2.60
2023-03-31T15:14:05.685Z,2.55
2023-03-31T15:16:57.279Z,2.50
2023-03-31T15:19:44.339Z,2.60
2023-03-31T15:22:32.129Z,2.35
2023-03-31T15:25:20.033Z,2.50
2023-03-31T15:28:11.792Z,2.28
2023-03-31T15:31:09.660Z,2.35
2023-03-31T15:33:59.480Z,2.33
2023-03-31T15:36:46.476Z,1.70
2023-03-31T15:39:36.689Z,1.80
2023-03-31T15:42:23.460Z,1.63
2023-03-31T15:45:17.060Z,1.88
2023-03-31T15:48:05.079Z,2.00
2023-03-31T15:50:53.516Z,1.77
2023-03-31T15:53:45.408Z,1.80
2023-03-31T15:56:42.680Z,1.48
2023-03-31T16:02:41.789Z,1.48
2023-03-31T16:05:54.547Z,1.40
2023-03-31T16:08:48.057Z,1.27
2023-03-31T16:11:59.700Z,1.60
2023-03-31T16:15:05.838Z,1.48
2023-03-31T16:17:59.925Z,1.48
2023-03-31T16:20:50.189Z,1.13
2023-03-31T16:23:38.742Z,1.30
2023-03-31T16:26:25.881Z,1.38
2023-03-31T16:29:19.221Z,1.40
2023-03-31T16:32:12.838Z,1.25
2023-03-31T16:34:59.457Z,1.40
2023-03-31T16:37:45.340Z,1.27
2023-03-31T16:40:32.890Z,1.40
2023-03-31T16:43:33.934Z,1.35
2023-03-31T16:46:19.697Z,1.50
2023-03-31T16:49:04.958Z,1.20
2023-03-31T16:51:50.551Z,1.63
2023-03-31T16:54:36.247Z,1.52
2023-03-31T16:57:21.533Z,1.13
2023-03-31T17:00:10.615Z,1.13
2023-03-31T17:02:57.417Z,1.23
2023-03-31T17:05:43.431Z,1.30
2023-03-31T17:08:28.800Z,1.10
2023-03-31T17:11:14.641Z,1.25
2023-03-31T17:14:00.471Z,1.15
2023-03-31T17:16:48.494Z,1.20
2023-03-31T17:19:33.911Z,1.30
2023-03-31T17:22:19.389Z,1.23
2023-03-31T17:25:05.609Z,1.20
2023-03-31T17:27:50.950Z,1.40
2023-03-31T17:30:36.464Z,1.30
2023-03-31T17:33:22.470Z,1.17
2023-03-31T17:36:08.384Z,1.55
2023-03-31T17:38:54.441Z,1.42
2023-03-31T17:41:39.894Z,1.45
2023-03-31T17:44:25.436Z,1.40
2023-03-31T17:47:10.724Z,1.27
2023-03-31T17:49:56.018Z,0.98
2023-03-31T17:52:41.323Z,1.40
2023-03-31T17:55:27.106Z,1.50
2023-03-31T17:58:13.648Z,1.42
2023-03-31T18:00:58.805Z,1.27
2023-03-31T18:03:46.194Z,1.20
2023-03-31T18:06:31.828Z,1.10
2023-03-31T18:09:17.997Z,1.40
2023-03-31T18:12:03.245Z,1.23
2023-03-31T18:14:48.453Z,1.20
2023-03-31T18:17:33.858Z,1.30
2023-03-31T18:20:19.471Z,1.10
2023-03-31T18:23:04.622Z,1.50
2023-03-31T18:25:49.715Z,1.25
2023-03-31T18:28:35.708Z,1.30
2023-03-31T18:31:22.313Z,1.02
2023-03-31T18:34:07.775Z,1.48
2023-03-31T18:36:53.369Z,1.30
2023-03-31T18:39:38.747Z,1.40
2023-03-31T18:42:25.679Z,1.30
2023-03-31T18:45:11.335Z,1.30
2023-03-31T18:47:57.012Z,1.30
2023-03-31T18:50:42.718Z,1.23
2023-03-31T18:53:28.404Z,1.50
2023-03-31T18:56:13.724Z,1.50
2023-03-31T18:58:59.603Z,1.20
2023-03-31T19:01:45.483Z,1.75
2023-03-31T19:04:30.692Z,1.50
2023-03-31T19:07:16.316Z,1.63
2023-03-31T19:10:01.542Z,1.33
2023-03-31T19:12:47.898Z,1.50
2023-03-31T19:15:33.818Z,1.65
2023-03-31T19:18:18.985Z,2.20
2023-03-31T19:21:04.715Z,1.98
2023-03-31T19:23:49.941Z,2.10
2023-03-31T19:26:35.329Z,2.13
2023-03-31T19:29:20.874Z,1.65
2023-03-31T19:32:06.392Z,1.70
2023-03-31T19:34:52.745Z,2.25
2023-03-31T19:37:38.784Z,2.13
2023-03-31T19:40:24.332Z,2.17
2023-03-31T19:43:18.150Z,1.95
2023-03-31T19:46:03.763Z,1.92
2023-03-31T19:48:49.318Z,2.40
2023-03-31T19:51:34.555Z,2.10
2023-03-31T19:54:20.316Z,2.17
2023-03-31T19:57:06.027Z,2.17
2023-03-31T19:59:51.367Z,2.47
2023-03-31T20:02:36.895Z,2.20
2023-03-31T20:05:22.383Z,2.37
2023-03-31T20:08:08.045Z,2.10
2023-03-31T20:10:58.099Z,1.98
2023-03-31T20:13:43.589Z,2.30
2023-03-31T20:16:30.716Z,2.67
2023-03-31T20:19:17.718Z,2.13
2023-03-31T20:22:02.726Z,2.10
2023-03-31T20:24:48.229Z,2.35
2023-03-31T20:27:33.484Z,2.22
2023-03-31T20:30:19.062Z,1.90
2023-03-31T20:33:04.332Z,2.20
2023-03-31T20:35:58.246Z,2.08
2023-03-31T20:38:46.814Z,2.20
2023-03-31T20:41:32.734Z,2.33
2023-03-31T20:44:18.717Z,1.98
2023-03-31T20:47:03.919Z,2.17
2023-03-31T20:49:49.423Z,2.30
2023-03-31T20:52:34.708Z,2.13
2023-03-31T20:55:20.270Z,2.40
2023-03-31T20:58:05.465Z,2.42
2023-03-31T21:00:56.518Z,2.07
2023-03-31T21:03:42.575Z,2.25
2023-03-31T21:06:35.947Z,2.45
2023-03-31T21:09:21.891Z,2.38
2023-03-31T21:12:07.218Z,2.08
2023-03-31T21:14:52.673Z,2.60
2023-03-31T21:17:38.350Z,2.10
2023-03-31T21:20:23.557Z,2.28
2023-03-31T21:23:08.722Z,2.60
2023-03-31T21:25:56.736Z,2.22
2023-03-31T21:28:42.492Z,2.53
2023-03-31T21:31:48.837Z,2.50
2023-03-31T21:34:34.426Z,2.30
2023-03-31T21:37:19.600Z,2.15
2023-03-31T21:40:07.686Z,1.77
2023-03-31T21:42:54.151Z,2.17
2023-03-31T21:45:40.205Z,1.85
2023-03-31T21:48:26.482Z,1.70
2023-03-31T21:51:12.061Z,1.88
2023-03-31T21:53:58.713Z,1.88
2023-03-31T21:56:44.890Z,1.90
2023-03-31T21:59:30.909Z,2.03
2023-03-31T22:02:18.298Z,1.77
2023-03-31T22:05:04.733Z,1.70
2023-03-31T22:07:49.787Z,1.80
2023-03-31T22:10:35.781Z,1.93
2023-03-31T22:13:21.943Z,1.98
2023-03-31T22:16:14.534Z,1.55
2023-03-31T22:19:00.202Z,1.30
2023-03-31T22:21:58.456Z,1.10
2023-03-31T22:24:43.611Z,1.00
2023-03-31T22:27:28.842Z,1.40
2023-03-31T22:30:14.349Z,2.22
2023-03-31T22:32:59.553Z,1.50
2023-03-31T22:35:45.364Z,1.15
2023-03-31T22:38:30.533Z,1.00
2023-03-31T22:41:15.922Z,1.08
2023-03-31T22:44:01.271Z,1.27
2023-03-31T22:46:46.712Z,1.20
2023-03-31T22:49:32.549Z,1.30
2023-03-31T22:52:17.796Z,1.23
2023-03-31T22:55:03.233Z,1.20
2023-03-31T22:57:48.473Z,1.10
2023-03-31T23:06:49.297Z,1.07
2023-03-31T23:09:34.432Z,1.30
2023-03-31T23:12:19.436Z,1.10
2023-03-31T23:15:04.977Z,1.35
2023-03-31T23:17:50.503Z,1.30
2023-03-31T23:20:38.882Z,1.30
2023-03-31T23:23:23.974Z,1.52
2023-03-31T23:26:09.039Z,1.20
2023-03-31T23:28:54.923Z,1.30
2023-03-31T23:46:48.098Z,1.30
2023-03-31T23:49:34.888Z,1.30
2023-03-31T23:52:20.030Z,1.45
2023-03-31T23:55:05.068Z,1.30
2023-03-31T23:57:50.391Z,1.08
